Time;durP1;ratioP1;P1;durP2;ratioP2;P2;SDS_P1;SDS_P2;PMS_P1;PMS_P2;Temp;Humidity;BMP_temperature;BMP_pressure;BME280_temperature;BME280_humidity;BME280_pressure;Samples;Min_cycle;Max_cycle;Signal;HPM_P1;HPM_P2
2022/04/17 00:01:38;;;;;;;13.57;4.97;;;;;;;6.58;48.84;102813.88;5040848;28;20032;-77
2022/04/17 00:04:04;;;;;;;9.00;4.40;;;;;;;6.62;48.16;102810.22;5062072;28;20028;-77
2022/04/17 00:06:29;;;;;;;8.05;3.90;;;;;;;6.70;48.09;102812.38;5061219;28;20056;-76
2022/04/17 00:08:57;;;;;;;9.18;4.40;;;;;;;6.85;47.39;102810.75;5043949;28;20038;-76
2022/04/17 00:11:23;;;;;;;10.23;4.25;;;;;;;6.74;47.17;102812.16;5024096;28;20029;-77
2022/04/17 00:13:48;;;;;;;8.80;4.38;;;;;;;6.79;46.98;102812.72;5025461;28;20036;-76
2022/04/17 00:16:14;;;;;;;7.55;3.97;;;;;;;6.73;47.58;102807.09;5055073;28;20032;-76
2022/04/17 00:18:39;;;;;;;6.30;3.85;;;;;;;6.68;47.48;102814.22;5061085;28;20028;-76
2022/04/17 00:21:08;;;;;;;6.30;4.18;;;;;;;6.68;48.05;102814.22;5059733;28;20126;-77
2022/04/17 00:23:33;;;;;;;9.88;4.82;;;;;;;6.70;47.32;102813.22;5040799;28;20112;-76
2022/04/17 00:25:59;;;;;;;7.88;3.75;;;;;;;6.62;48.12;102807.66;5039030;28;20058;-76
2022/04/17 00:28:24;;;;;;;6.18;3.60;;;;;;;6.62;47.90;102808.47;5039793;28;20543;-76
2022/04/17 00:30:50;;;;;;;8.43;4.25;;;;;;;6.68;47.33;102807.31;5056316;28;20385;-76
2022/04/17 00:33:15;;;;;;;10.43;4.25;;;;;;;6.65;47.70;102801.47;5036802;28;20079;-76
2022/04/17 00:35:43;;;;;;;9.02;4.18;;;;;;;6.61;47.93;102814.56;5043418;28;20566;-76
2022/04/17 00:38:08;;;;;;;8.10;3.97;;;;;;;6.60;47.68;102805.13;5039726;28;20075;-76
2022/04/17 00:40:34;;;;;;;8.70;4.45;;;;;;;6.49;48.08;102802.28;5040721;28;20028;-76
2022/04/17 00:42:59;;;;;;;8.15;4.18;;;;;;;6.42;48.49;102806.94;5037612;28;20027;-76
2022/04/17 00:45:26;;;;;;;9.93;3.67;;;;;;;6.29;49.92;102803.34;5036461;28;20036;-76
2022/04/17 00:47:51;;;;;;;6.70;3.85;;;;;;;6.31;50.09;102798.94;5039394;28;20491;-76
2022/04/17 00:50:18;;;;;;;6.93;3.28;;;;;;;6.23;50.01;102795.91;5022990;28;20047;-76
2022/04/17 00:52:46;;;;;;;8.10;3.85;;;;;;;6.35;49.76;102791.88;5058168;28;20467;-76
2022/04/17 00:55:12;;;;;;;7.65;3.95;;;;;;;6.26;49.73;102793.19;5038563;28;20115;-76
2022/04/17 00:57:40;;;;;;;8.68;4.25;;;;;;;6.26;50.17;102790.63;5033990;28;20035;-76
2022/04/17 01:00:06;;;;;;;7.25;4.05;;;;;;;6.26;49.75;102793.19;5052471;28;20036;-76
2022/04/17 01:02:31;;;;;;;6.97;4.07;;;;;;;6.13;50.69;102789.59;5054600;28;20612;-76
2022/04/17 01:04:57;;;;;;;8.25;3.65;;;;;;;6.22;50.06;102782.22;5041331;28;20094;-76
2022/04/17 01:07:23;;;;;;;7.13;3.53;;;;;;;6.12;50.47;102778.44;5025439;28;20579;-76
2022/04/17 01:09:53;;;;;;;8.88;3.70;;;;;;;6.20;50.17;102783.22;5027150;28;20040;-76
2022/04/17 01:12:18;;;;;;;6.78;3.63;;;;;;;6.27;49.75;102776.81;5040400;28;20059;-77
2022/04/17 01:14:44;;;;;;;8.38;3.80;;;;;;;6.21;50.41;102775.38;5044227;28;20094;-76
2022/04/17 01:17:11;;;;;;;7.78;4.20;;;;;;;6.17;50.27;102784.19;5042101;28;20436;-77
2022/04/17 01:19:39;;;;;;;6.18;3.33;;;;;;;6.22;50.49;102779.63;5044905;28;20032;-76
2022/04/17 01:22:06;;;;;;;5.90;3.38;;;;;;;6.22;50.58;102783.97;5040209;28;20036;-76
2022/04/17 01:27:17;;;;;;;6.28;3.55;;;;;;;6.20;51.26;102771.16;5061750;28;20359;-77
2022/04/17 01:29:44;;;;;;;8.23;3.72;;;;;;;6.32;50.61;102776.59;5059631;28;20123;-76
2022/04/17 01:32:10;;;;;;;8.30;3.97;;;;;;;6.29;50.45;102774.16;5043743;28;20110;-76
2022/04/17 01:34:37;;;;;;;7.93;3.38;;;;;;;6.39;50.51;102777.94;5044085;28;20460;-76
2022/04/17 01:37:04;;;;;;;9.85;3.65;;;;;;;6.35;50.91;102766.13;5028019;28;20028;-77
2022/04/17 01:39:30;;;;;;;7.38;3.78;;;;;;;6.33;50.68;102762.75;5023495;28;20040;-77
2022/04/17 01:41:57;;;;;;;8.52;3.80;;;;;;;6.29;50.68;102769.00;5028650;28;20036;-77
2022/04/17 01:44:24;;;;;;;9.18;4.47;;;;;;;6.31;51.07;102772.31;5042420;28;20481;-77
2022/04/17 01:46:50;;;;;;;8.02;4.13;;;;;;;6.27;51.64;102763.91;5060755;28;20024;-76
2022/04/17 01:49:16;;;;;;;6.70;4.40;;;;;;;6.20;51.88;102763.41;5041339;28;20397;-76
2022/04/17 01:51:43;;;;;;;9.38;3.70;;;;;;;6.13;52.53;102767.22;5046610;28;20028;-76
2022/04/17 01:54:10;;;;;;;9.55;4.20;;;;;;;6.18;52.55;102761.84;5041314;28;20046;-76
2022/04/17 01:56:37;;;;;;;7.82;4.15;;;;;;;6.12;52.61;102763.00;5028076;28;20464;-76
2022/04/17 01:59:05;;;;;;;9.25;4.53;;;;;;;6.02;52.88;102770.34;5020507;28;20120;-76
2022/04/17 02:01:31;;;;;;;8.43;3.90;;;;;;;5.93;53.82;102763.03;5038899;28;20039;-76
2022/04/17 02:03:57;;;;;;;9.40;4.43;;;;;;;5.82;53.96;102757.59;5040438;28;20043;-76
2022/04/17 02:06:22;;;;;;;13.05;4.22;;;;;;;5.91;53.39;102764.03;5059597;28;20020;-76
2022/04/17 02:08:48;;;;;;;9.18;4.32;;;;;;;5.90;53.92;102758.06;5043203;28;20385;-76
2022/04/17 02:11:13;;;;;;;6.90;4.07;;;;;;;5.84;54.08;102750.66;5028657;28;20032;-77
2022/04/17 02:13:39;;;;;;;9.93;4.20;;;;;;;5.83;54.11;102759.28;5027193;28;20712;-77
2022/04/17 02:16:05;;;;;;;9.00;4.40;;;;;;;5.78;53.92;102753.53;5028385;28;20117;-76
2022/04/17 02:18:31;;;;;;;6.28;3.50;;;;;;;5.76;54.30;102742.47;5041107;28;20040;-76
2022/04/17 02:20:56;;;;;;;9.50;4.53;;;;;;;5.66;54.83;102748.06;5044515;28;20036;-76
2022/04/17 02:23:22;;;;;;;10.52;4.85;;;;;;;5.66;55.16;102750.66;5060828;28;20020;-76
2022/04/17 02:25:47;;;;;;;8.10;4.28;;;;;;;5.62;55.02;102741.41;5061078;28;20039;-76
2022/04/17 02:28:14;;;;;;;7.75;3.83;;;;;;;5.57;55.33;102747.69;5037225;28;20620;-77
2022/04/17 02:30:39;;;;;;;9.65;4.03;;;;;;;5.45;55.67;102744.00;5039865;28;20175;-76
2022/04/17 02:33:05;;;;;;;8.77;4.30;;;;;;;5.45;55.62;102744.81;5042019;28;20043;-77
2022/04/17 02:35:30;;;;;;;13.00;4.75;;;;;;;5.46;55.43;102745.66;5039733;28;20036;-76
2022/04/17 02:37:56;;;;;;;8.52;4.35;;;;;;;5.41;56.16;102745.88;5039317;28;20039;-76
2022/04/17 02:40:21;;;;;;;9.13;4.60;;;;;;;5.52;55.37;102731.66;5042429;28;20036;-76
2022/04/17 02:42:48;;;;;;;8.35;4.55;;;;;;;5.37;55.98;102739.22;5025893;28;20032;-76
2022/04/17 02:45:13;;;;;;;9.30;4.85;;;;;;;5.33;56.47;102731.72;5058900;28;20173;-77
2022/04/17 02:47:46;;;;;;;6.60;4.30;;;;;;;5.36;56.09;102726.44;5045529;28;20048;-76
2022/04/17 02:50:14;;;;;;;12.05;4.43;;;;;;;5.33;56.49;102736.88;5043012;28;20086;-76
2022/04/17 02:52:39;;;;;;;8.35;4.07;;;;;;;5.29;56.44;102743.06;5058436;28;20079;-76
2022/04/17 02:55:06;;;;;;;9.82;4.78;;;;;;;5.25;56.32;102727.81;5042257;28;20107;-77
2022/04/17 02:57:32;;;;;;;8.48;5.00;;;;;;;5.32;55.85;102732.66;5058127;28;20611;-76
2022/04/17 02:59:58;;;;;;;7.07;4.50;;;;;;;5.34;56.03;102731.66;5043078;28;20060;-76
2022/04/17 03:07:53;;;;;;;9.45;4.30;;;;;;;5.15;57.34;102724.00;5060398;28;20783;-77
2022/04/17 03:10:18;;;;;;;8.80;4.35;;;;;;;5.15;57.21;102723.16;5044703;28;20186;-77
2022/04/17 03:12:44;;;;;;;9.80;4.13;;;;;;;5.22;56.71;102729.69;5037476;28;20043;-76
2022/04/17 03:15:10;;;;;;;6.78;3.70;;;;;;;5.20;57.22;102722.03;5039082;28;20123;-76
2022/04/17 03:17:36;;;;;;;8.68;5.88;;;;;;;5.07;57.85;102733.81;5037799;28;20051;-76
2022/04/17 03:20:03;;;;;;;9.68;4.53;;;;;;;5.06;58.05;102732.16;5041428;28;20487;-76
2022/04/17 03:22:29;;;;;;;9.82;4.32;;;;;;;5.07;57.56;102729.50;5060578;28;20090;-76
2022/04/17 03:24:54;;;;;;;7.78;3.80;;;;;;;5.14;57.43;102718.91;5039126;28;20036;-76
2022/04/17 03:27:20;;;;;;;9.75;4.47;;;;;;;5.07;57.76;102715.81;5046248;28;20110;-76
2022/04/17 03:29:45;;;;;;;13.77;4.60;;;;;;;5.06;57.81;102724.44;5027679;28;20028;-77
2022/04/17 03:32:11;;;;;;;7.03;3.90;;;;;;;4.96;58.12;102708.59;5041218;28;20536;-76
2022/04/17 03:34:37;;;;;;;8.57;4.43;;;;;;;4.97;58.04;102712.00;5027612;28;20036;-76
2022/04/17 03:37:06;;;;;;;8.73;4.30;;;;;;;4.93;58.71;102708.75;5058826;28;20123;-76
2022/04/17 03:39:32;;;;;;;9.18;5.30;;;;;;;4.90;58.54;102706.34;5043223;28;20059;-76
2022/04/17 03:41:57;;;;;;;8.52;4.85;;;;;;;4.80;58.41;102699.94;5040825;28;20020;-77
2022/04/17 03:44:26;;;;;;;10.60;4.65;;;;;;;4.84;58.09;102707.47;5056535;28;20024;-76
2022/04/17 03:46:52;;;;;;;8.23;3.95;;;;;;;4.82;58.52;102699.00;5062639;28;20114;-76
2022/04/17 03:49:18;;;;;;;9.93;4.50;;;;;;;4.91;58.30;102696.88;5062048;28;20040;-76
2022/04/17 03:51:43;;;;;;;6.55;4.15;;;;;;;4.93;58.31;102703.59;5027382;28;20513;-76
2022/04/17 03:54:09;;;;;;;7.72;4.10;;;;;;;4.92;57.89;102696.81;5046465;28;20275;-75
2022/04/17 03:56:35;;;;;;;8.80;4.03;;;;;;;4.86;58.45;102695.38;5026193;28;20035;-76
2022/04/17 03:59:01;;;;;;;12.05;3.90;;;;;;;4.80;58.25;102684.53;5041176;28;20037;-76
2022/04/17 04:01:27;;;;;;;8.48;4.18;;;;;;;4.80;58.44;102682.81;5040572;28;20089;-77
2022/04/17 04:03:56;;;;;;;7.03;3.75;;;;;;;4.72;59.01;102681.50;5041187;28;20043;-76
2022/04/17 04:06:22;;;;;;;7.15;4.65;;;;;;;4.87;58.04;102686.72;5042107;28;20032;-76
2022/04/17 04:08:49;;;;;;;10.80;4.10;;;;;;;4.85;58.19;102687.72;5060750;28;20036;-76
2022/04/17 04:11:15;;;;;;;8.23;4.65;;;;;;;4.78;59.01;102683.75;5045847;28;20040;-76
2022/04/17 04:13:42;;;;;;;6.35;3.83;;;;;;;4.78;58.58;102689.72;5043739;28;20564;-76
2022/04/17 04:16:08;;;;;;;9.90;4.30;;;;;;;4.79;58.47;102691.41;5064713;28;20029;-76
2022/04/17 04:18:33;;;;;;;7.53;3.78;;;;;;;4.74;58.64;102695.94;5043329;28;20379;-77
2022/04/17 04:20:59;;;;;;;8.05;3.95;;;;;;;4.81;58.65;102706.75;5058894;28;20174;-76
2022/04/17 04:23:25;;;;;;;10.35;4.28;;;;;;;4.71;58.82;102700.38;5022097;28;20028;-76
2022/04/17 04:25:51;;;;;;;8.30;4.00;;;;;;;4.73;58.83;102701.97;5027971;28;20420;-76
2022/04/17 04:28:36;;;;;;;9.68;4.00;;;;;;;4.81;59.01;102701.63;5061441;28;20024;-76
2022/04/17 04:31:06;;;;;;;12.60;5.78;;;;;;;4.72;59.32;102694.34;5058032;28;20523;-76
2022/04/17 04:33:36;;;;;;;9.88;4.50;;;;;;;4.71;59.00;102698.66;5044350;28;20052;-76
2022/04/17 04:36:04;;;;;;;8.48;4.20;;;;;;;4.79;58.88;102691.41;5041763;28;20104;-76
2022/04/17 04:38:30;;;;;;;11.23;4.25;;;;;;;4.74;59.40;102692.53;5060789;28;20048;-76
2022/04/17 04:40:56;;;;;;;11.23;4.60;;;;;;;4.75;59.34;102684.75;5061718;28;20404;-76
2022/04/17 04:43:21;;;;;;;10.57;4.35;;;;;;;4.67;59.82;102692.81;5045062;28;20290;-76
2022/04/17 04:51:15;;;;;;;7.90;4.03;;;;;;;4.61;60.06;102676.84;5063784;28;20088;-76
2022/04/17 04:53:41;;;;;;;9.25;4.03;;;;;;;4.60;60.27;102675.19;5042830;28;20037;-76
2022/04/17 04:56:07;;;;;;;10.23;4.40;;;;;;;4.56;60.50;102676.22;5064022;28;20041;-76
2022/04/17 04:58:33;;;;;;;10.07;4.63;;;;;;;4.55;61.10;102672.81;5061540;28;20131;-76
2022/04/17 05:00:58;;;;;;;6.93;4.68;;;;;;;4.59;61.15;102678.66;5068871;28;20513;-76
2022/04/17 05:03:25;;;;;;;8.98;3.72;;;;;;;4.72;60.48;102682.31;5044302;28;20333;-77
2022/04/17 05:05:50;;;;;;;9.25;4.00;;;;;;;4.68;60.26;102675.66;5045331;28;20393;-76
2022/04/17 05:08:16;;;;;;;6.85;4.05;;;;;;;4.70;60.67;102676.41;5044453;28;20548;-76
2022/04/17 05:10:42;;;;;;;11.38;4.30;;;;;;;4.64;60.71;102679.28;5039317;28;20083;-76
2022/04/17 05:13:08;;;;;;;8.98;4.30;;;;;;;4.69;61.18;102682.47;5044493;28;20401;-76
2022/04/17 05:15:33;;;;;;;7.68;4.00;;;;;;;4.65;60.72;102686.94;5044966;28;20036;-76
2022/04/17 05:17:59;;;;;;;8.55;4.40;;;;;;;4.70;60.78;102681.56;5028612;28;20121;-76
2022/04/17 05:20:26;;;;;;;8.18;4.55;;;;;;;4.71;61.08;102677.25;5045837;28;20036;-76
2022/04/17 05:22:56;;;;;;;6.88;3.92;;;;;;;4.68;61.00;102676.47;5027836;28;20028;-77
2022/04/17 05:25:22;;;;;;;7.50;3.85;;;;;;;4.74;60.30;102682.25;5039234;28;20098;-77
2022/04/17 05:27:48;;;;;;;5.43;3.53;;;;;;;4.81;60.43;102687.03;5041030;28;20028;-76
2022/04/17 05:30:13;;;;;;;8.15;3.42;;;;;;;4.80;61.13;102690.53;5030221;28;20032;-76
2022/04/17 05:32:39;;;;;;;8.75;4.47;;;;;;;4.85;60.83;102690.28;5042579;28;20037;-76
2022/04/17 05:35:05;;;;;;;16.15;4.40;;;;;;;4.96;60.18;102685.47;5058982;28;20041;-76
2022/04/17 05:37:31;;;;;;;7.10;4.60;;;;;;;5.09;59.39;102683.16;5043846;28;20044;-76
2022/04/17 05:39:56;;;;;;;12.13;3.70;;;;;;;5.11;59.96;102689.03;5045045;28;20089;-76
2022/04/17 05:42:22;;;;;;;4.85;3.10;;;;;;;5.16;59.80;102688.81;5040685;28;20036;-76
2022/04/17 05:44:49;;;;;;;8.07;3.53;;;;;;;5.36;59.18;102682.69;5041761;28;20036;-76
2022/04/17 05:47:14;;;;;;;6.82;3.55;;;;;;;5.45;58.89;102682.25;5023272;28;20047;-76
2022/04/17 05:49:40;;;;;;;5.97;2.95;;;;;;;5.66;58.29;102683.72;5044050;28;20036;-76
2022/04/17 05:52:06;;;;;;;7.03;3.10;;;;;;;5.86;58.11;102681.91;5061191;28;20456;-76
2022/04/17 05:54:31;;;;;;;9.40;3.13;;;;;;;5.89;57.56;102676.56;5042795;28;20699;-76
2022/04/17 05:56:56;;;;;;;4.68;3.40;;;;;;;5.97;57.85;102678.78;5045768;28;20032;-76
2022/04/17 05:59:22;;;;;;;6.35;3.55;;;;;;;5.98;57.76;102673.53;5023810;28;20029;-76
2022/04/17 06:01:47;;;;;;;5.78;3.00;;;;;;;6.27;56.60;102678.91;5064240;28;20020;-76
2022/04/17 06:04:13;;;;;;;6.25;3.13;;;;;;;6.52;55.65;102685.34;5045214;28;20059;-76
2022/04/17 06:06:38;;;;;;;6.20;3.75;;;;;;;6.49;55.87;102688.06;5042932;28;20075;-76
2022/04/17 06:09:04;;;;;;;5.82;3.40;;;;;;;6.37;56.31;102679.25;5040179;28;20040;-76
2022/04/17 06:11:30;;;;;;;6.75;3.15;;;;;;;6.31;56.22;102671.84;5041909;28;20048;-77
2022/04/17 06:13:55;;;;;;;6.10;3.00;;;;;;;6.29;56.96;102686.53;5026032;28;20104;-76
2022/04/17 06:16:21;;;;;;;5.15;2.90;;;;;;;6.19;57.00;102683.63;5040950;28;20040;-77
2022/04/17 06:18:46;;;;;;;4.68;2.58;;;;;;;6.26;56.44;102677.25;5026987;28;20036;-76
2022/04/17 06:21:12;;;;;;;3.80;2.63;;;;;;;6.35;56.69;102670.78;5059378;28;20043;-77
2022/04/17 06:23:38;;;;;;;5.85;2.75;;;;;;;6.31;56.91;102672.69;5054889;28;20482;-76
2022/04/17 06:26:04;;;;;;;4.45;2.53;;;;;;;6.38;57.51;102668.84;5042255;28;20063;-75
2022/04/17 06:28:30;;;;;;;6.35;2.70;;;;;;;6.54;56.40;102671.44;5036156;28;20328;-77
2022/04/17 06:30:55;;;;;;;7.22;2.75;;;;;;;6.54;55.92;102675.75;5041323;28;20055;-76
2022/04/17 06:33:21;;;;;;;6.63;2.65;;;;;;;6.54;56.91;102674.00;5042970;28;20025;-76
2022/04/17 06:35:46;;;;;;;4.90;2.85;;;;;;;6.68;55.25;102677.56;5038164;28;20473;-76
2022/04/17 06:38:13;;;;;;;7.30;2.85;;;;;;;6.77;54.75;102675.31;5042733;28;20040;-75
2022/04/17 06:40:38;;;;;;;5.38;2.50;;;;;;;6.92;54.70;102675.38;5041678;28;20405;-75
2022/04/17 06:43:08;;;;;;;4.20;2.45;;;;;;;6.98;54.54;102672.44;5043422;28;20115;-76
2022/04/17 06:45:36;;;;;;;6.03;2.85;;;;;;;7.08;54.05;102670.19;5057372;28;20489;-77
2022/04/17 06:48:12;;;;;;;9.48;2.92;;;;;;;7.24;53.81;102667.56;5041153;28;20089;-76
2022/04/17 06:50:39;;;;;;;6.57;2.95;;;;;;;7.38;53.50;102667.56;5040390;28;20123;-76
2022/04/17 06:53:04;;;;;;;6.43;2.35;;;;;;;7.53;52.26;102652.94;5041556;28;20086;-75
2022/04/17 06:55:30;;;;;;;7.47;2.60;;;;;;;7.82;52.62;102647.78;5038000;28;20102;-76
2022/04/17 06:57:55;;;;;;;3.25;2.35;;;;;;;8.11;51.51;102646.00;5045643;28;20043;-77
2022/04/17 07:00:22;;;;;;;8.00;3.00;;;;;;;8.66;50.40;102639.16;5040849;28;20082;-76
2022/04/17 07:02:48;;;;;;;8.68;3.17;;;;;;;9.53;49.01;102627.34;5041881;28;20029;-76
2022/04/17 07:05:14;;;;;;;4.68;2.13;;;;;;;10.39;46.69;102626.56;5056417;28;20032;-78
2022/04/17 07:07:41;;;;;;;3.28;2.28;;;;;;;10.73;45.33;102621.53;5056656;28;20052;-77
2022/04/17 07:10:08;;;;;;;4.43;2.10;;;;;;;10.79;44.23;102623.66;5044661;28;20951;-76
2022/04/17 07:12:37;;;;;;;4.00;2.90;;;;;;;10.55;44.86;102623.72;5043153;28;20032;-76
2022/04/17 07:15:06;;;;;;;4.90;2.20;;;;;;;11.34;43.98;102621.31;5043752;28;20028;-77
2022/04/17 07:17:36;;;;;;;7.03;2.40;;;;;;;11.80;42.68;102622.16;5058898;28;20040;-76
2022/04/17 07:20:05;;;;;;;5.93;2.10;;;;;;;11.33;43.58;102627.44;5042330;28;20520;-77
2022/04/17 07:22:31;;;;;;;4.13;2.00;;;;;;;11.78;42.63;102630.06;5039338;28;20032;-78
2022/04/17 07:24:57;;;;;;;4.57;2.70;;;;;;;12.32;41.91;102620.66;5041522;28;20334;-76
2022/04/17 07:27:23;;;;;;;4.80;1.92;;;;;;;12.55;41.28;102612.78;5038076;28;20033;-78
2022/04/17 07:29:48;;;;;;;7.82;2.30;;;;;;;13.06;40.86;102617.22;5052924;28;20041;-76
2022/04/17 07:32:14;;;;;;;7.20;2.00;;;;;;;13.04;40.20;102621.75;5040721;28;20036;-77
2022/04/17 07:34:39;;;;;;;3.92;2.15;;;;;;;12.88;40.37;102619.56;5021896;28;20031;-77
2022/04/17 07:37:06;;;;;;;5.38;2.08;;;;;;;12.57;40.44;102621.28;5054509;28;20040;-77
2022/04/17 07:39:31;;;;;;;6.03;2.10;;;;;;;13.22;40.64;102624.56;5038343;28;20040;-78
2022/04/17 07:41:57;;;;;;;4.40;1.92;;;;;;;12.53;40.76;102628.50;5026809;28;20188;-75
2022/04/17 07:44:25;;;;;;;5.13;1.88;;;;;;;12.95;40.23;102641.53;5055851;28;20524;-77
2022/04/17 07:46:50;;;;;;;3.65;2.00;;;;;;;13.11;39.45;102635.06;5022822;28;20139;-77
2022/04/17 07:49:16;;;;;;;8.32;2.42;;;;;;;13.35;39.24;102634.81;5038713;28;20048;-78
2022/04/17 07:51:41;;;;;;;4.80;1.67;;;;;;;12.84;39.19;102637.22;5038927;28;20033;-76
2022/04/17 07:54:07;;;;;;;4.57;2.03;;;;;;;12.87;39.30;102630.13;5060842;28;20032;-77
2022/04/17 07:56:32;;;;;;;5.30;1.90;;;;;;;13.09;39.47;102635.22;5023991;28;20230;-78
2022/04/17 07:58:57;;;;;;;6.15;1.65;;;;;;;13.36;38.37;102631.28;5055395;28;20037;-76
2022/04/17 08:01:23;;;;;;;6.50;1.98;;;;;;;13.35;39.02;102616.56;5040007;28;20035;-77
2022/04/17 08:03:49;;;;;;;6.32;2.38;;;;;;;13.80;38.21;102619.63;5035224;28;20063;-78
2022/04/17 08:06:17;;;;;;;4.57;1.90;;;;;;;14.00;37.90;102625.72;5024287;28;20067;-78
2022/04/17 08:08:44;;;;;;;3.83;1.83;;;;;;;14.22;37.21;102613.38;5052426;28;20039;-77
2022/04/17 08:11:11;;;;;;;5.18;1.90;;;;;;;13.85;38.16;102615.81;5036540;28;20040;-77
2022/04/17 08:13:37;;;;;;;4.97;2.22;;;;;;;13.90;37.21;102613.63;5023537;28;20032;-77
2022/04/17 08:16:06;;;;;;;5.20;1.70;;;;;;;14.22;37.62;102613.38;5026382;28;20166;-78
2022/04/17 08:18:33;;;;;;;2.72;1.67;;;;;;;14.74;37.32;102613.97;5057536;28;20035;-77
2022/04/17 08:20:59;;;;;;;4.60;2.17;;;;;;;15.23;36.57;102616.47;5041240;28;20532;-77
2022/04/17 08:23:24;;;;;;;2.08;1.60;;;;;;;15.36;35.82;102614.34;5037285;28;20036;-78
2022/04/17 08:25:50;;;;;;;4.18;1.95;;;;;;;15.32;35.50;102617.41;5038163;28;20043;-79
2022/04/17 08:28:15;;;;;;;4.10;1.60;;;;;;;15.30;35.03;102617.56;5046667;28;20036;-78
2022/04/17 08:30:41;;;;;;;4.07;1.80;;;;;;;15.15;35.06;102609.34;5042492;28;20277;-78
2022/04/17 08:33:08;;;;;;;3.53;1.63;;;;;;;15.08;35.01;102610.88;5059787;28;20036;-78
2022/04/17 08:35:34;;;;;;;2.78;1.77;;;;;;;15.33;33.97;102621.66;5020566;28;20028;-76
2022/04/17 08:38:00;;;;;;;2.47;1.67;;;;;;;14.39;35.01;102604.06;5059682;28;20060;-77
2022/04/17 08:40:26;;;;;;;3.70;1.90;;;;;;;14.56;34.87;102598.16;5028258;28;20306;-74
2022/04/17 08:42:53;;;;;;;5.25;2.03;;;;;;;14.82;35.47;102591.56;5036355;28;20050;-79
2022/04/17 08:45:18;;;;;;;12.13;2.08;;;;;;;15.43;35.46;102598.13;5056304;28;20118;-78
2022/04/17 08:47:44;;;;;;;4.20;2.45;;;;;;;15.33;34.14;102595.53;5027826;28;20549;-79
2022/04/17 08:50:14;;;;;;;3.95;1.63;;;;;;;15.62;34.45;102597.19;5050342;28;20049;-79
2022/04/17 08:52:41;;;;;;;5.30;2.20;;;;;;;15.44;33.76;102597.13;5046998;28;20041;-77
2022/04/17 08:55:08;;;;;;;8.40;1.80;;;;;;;14.73;34.97;102588.84;5061538;28;20032;-80
2022/04/17 08:57:33;;;;;;;7.63;1.90;;;;;;;15.29;35.47;102592.38;5050137;28;20042;-79
2022/04/17 08:59:59;;;;;;;2.67;1.60;;;;;;;15.62;35.74;102590.19;5044355;28;20028;-79
2022/04/17 09:02:25;;;;;;;4.28;2.17;;;;;;;15.31;34.84;102584.41;5030246;28;20389;-79
2022/04/17 09:04:50;;;;;;;5.75;2.35;;;;;;;15.05;34.87;102581.59;5045985;28;20036;-79
2022/04/17 09:07:16;;;;;;;3.38;1.73;;;;;;;14.55;35.75;102574.81;5032866;28;20319;-79
2022/04/17 09:09:53;;;;;;;4.80;2.00;;;;;;;14.51;36.04;102578.66;5028511;28;20428;-79
2022/04/17 09:12:26;;;;;;;5.75;2.00;;;;;;;14.30;35.42;102573.59;5050607;28;20119;-78
2022/04/17 09:14:55;;;;;;;3.75;2.08;;;;;;;14.90;35.07;102581.22;5042336;28;20035;-76
2022/04/17 09:17:34;;;;;;;4.50;1.70;;;;;;;15.32;34.67;102565.97;5047441;28;20021;-78
2022/04/17 09:20:00;;;;;;;5.25;1.58;;;;;;;15.97;34.91;102559.81;5044970;28;20035;-78
2022/04/17 09:22:45;;;;;;;4.47;1.70;;;;;;;15.84;34.73;102562.84;5068272;28;20025;-80
2022/04/17 09:25:12;;;;;;;4.60;1.67;;;;;;;15.49;33.38;102553.09;5040079;28;20501;-80
2022/04/17 09:27:41;;;;;;;3.08;1.70;;;;;;;15.30;33.25;102560.06;5028904;28;20048;-79
2022/04/17 09:30:29;;;;;;;4.32;1.67;;;;;;;15.70;34.46;102552.84;5067352;28;20051;-79
2022/04/17 09:32:56;;;;;;;5.50;2.28;;;;;;;15.54;33.01;102550.88;5030717;28;20040;-78
2022/04/17 09:35:23;;;;;;;5.38;1.83;;;;;;;15.42;34.07;102541.56;5066324;28;20036;-79
2022/04/17 09:37:54;;;;;;;3.97;1.73;;;;;;;15.02;33.39;102548.75;5048368;28;20551;-80
2022/04/17 09:40:20;;;;;;;4.53;1.60;;;;;;;15.01;34.45;102544.47;5067927;28;20028;-79
2022/04/17 09:42:48;;;;;;;5.70;2.10;;;;;;;14.82;34.50;102540.16;5048004;28;20028;-80
2022/04/17 09:45:14;;;;;;;5.40;1.70;;;;;;;15.05;33.97;102534.56;5052937;28;20060;-80
2022/04/17 09:47:39;;;;;;;4.70;1.73;;;;;;;15.33;34.09;102540.63;5031780;28;20051;-79
2022/04/17 09:50:07;;;;;;;3.60;1.52;;;;;;;15.08;34.48;102529.06;5048944;28;20040;-80
2022/04/17 09:52:38;;;;;;;4.63;1.85;;;;;;;14.88;34.50;102526.53;5045111;28;20079;-79
2022/04/17 09:55:04;;;;;;;10.40;2.38;;;;;;;15.01;35.41;102501.88;5067735;28;20769;-79
2022/04/17 09:57:35;;;;;;;4.10;2.03;;;;;;;15.53;35.57;102508.19;5048907;28;20033;-78
2022/04/17 10:00:11;;;;;;;3.13;1.73;;;;;;;15.61;33.06;102494.38;5044406;28;20173;-79
2022/04/17 10:02:41;;;;;;;4.78;1.40;;;;;;;15.96;36.25;102498.84;5059912;28;20044;-78
2022/04/17 10:05:08;;;;;;;3.75;1.70;;;;;;;16.22;34.29;102497.22;5052420;28;20041;-78
2022/04/17 10:07:38;;;;;;;5.93;1.73;;;;;;;16.38;34.31;102489.50;5050174;28;20112;-78
2022/04/17 10:10:07;;;;;;;4.07;1.80;;;;;;;15.84;33.59;102489.59;5040470;28;20029;-79
2022/04/17 10:12:36;;;;;;;7.03;1.60;;;;;;;15.94;33.41;102489.50;5050933;28;20037;-78
2022/04/17 10:15:04;;;;;;;5.03;1.90;;;;;;;16.12;33.86;102482.47;5045846;28;20062;-78
2022/04/17 10:17:31;;;;;;;3.72;1.88;;;;;;;16.35;33.28;102485.41;5045479;28;20041;-79
2022/04/17 10:20:01;;;;;;;7.20;2.17;;;;;;;16.44;34.25;102483.66;5050925;28;20032;-79
2022/04/17 10:22:33;;;;;;;6.40;2.13;;;;;;;16.49;33.69;102481.41;5067095;28;20957;-78
2022/04/17 10:24:59;;;;;;;2.80;1.63;;;;;;;16.68;34.95;102482.16;5060016;28;20197;-80
2022/04/17 10:27:48;;;;;;;4.38;1.58;;;;;;;16.45;33.41;102466.16;5047182;28;20089;-78
2022/04/17 10:30:16;;;;;;;2.15;1.42;;;;;;;16.63;33.31;102469.56;5047020;28;20024;-79
2022/04/17 10:33:13;;;;;;;4.35;1.80;;;;;;;16.73;32.93;102472.88;5046120;28;20143;-79
2022/04/17 10:36:22;;;;;;;6.65;2.13;;;;;;;16.97;33.61;102460.06;5050806;28;20044;-79
2022/04/17 10:39:04;;;;;;;3.03;1.65;;;;;;;17.11;33.17;102452.41;5033930;28;20484;-79
2022/04/17 10:41:30;;;;;;;3.47;2.03;;;;;;;17.13;33.10;102452.25;5030472;28;20341;-78
2022/04/17 10:43:57;;;;;;;3.97;1.80;;;;;;;17.32;32.63;102451.16;5049391;28;20753;-79
2022/04/17 10:46:23;;;;;;;3.13;1.90;;;;;;;17.26;33.83;102455.25;5050621;28;20135;-78
2022/04/17 10:49:00;;;;;;;3.15;1.50;;;;;;;17.47;31.72;102443.50;5047573;28;20485;-79
2022/04/17 10:51:30;;;;;;;8.23;1.67;;;;;;;17.69;32.41;102445.47;5062357;28;20481;-79
2022/04/17 10:54:04;;;;;;;5.10;1.63;;;;;;;17.56;31.72;102433.84;5051724;28;20132;-79
2022/04/17 10:56:52;;;;;;;4.65;1.50;;;;;;;17.40;30.83;102435.44;5066450;28;20100;-79
2022/04/17 10:59:20;;;;;;;5.53;1.42;;;;;;;17.39;30.26;102428.56;5025238;28;20513;-78
2022/04/17 11:01:45;;;;;;;5.45;1.60;;;;;;;17.48;30.34;102426.78;5050652;28;20044;-79
2022/04/17 11:04:15;;;;;;;2.33;1.80;;;;;;;17.27;30.57;102420.19;5042059;28;20230;-78
2022/04/17 11:06:42;;;;;;;4.00;1.60;;;;;;;17.51;31.08;102411.53;5049916;28;20034;-79
2022/04/17 11:09:18;;;;;;;3.30;1.45;;;;;;;17.67;29.98;102405.47;5049309;28;20036;-79
2022/04/17 11:11:45;;;;;;;2.33;1.50;;;;;;;17.70;30.05;102399.88;5036620;28;20044;-79
2022/04/17 11:14:17;;;;;;;6.72;1.42;;;;;;;17.56;30.74;102405.00;5045659;28;20104;-78
2022/04/17 11:16:51;;;;;;;1.98;1.40;;;;;;;17.28;30.06;102392.97;5061974;28;20043;-79
2022/04/17 11:19:18;;;;;;;4.45;1.40;;;;;;;17.49;30.47;102403.00;5043709;28;20058;-79
2022/04/17 11:21:47;;;;;;;4.85;1.50;;;;;;;17.29;30.41;102378.91;5032434;28;20082;-79
2022/04/17 11:24:12;;;;;;;3.42;1.60;;;;;;;17.55;29.78;102387.59;5046863;28;20128;-79
2022/04/17 11:26:53;;;;;;;2.85;1.40;;;;;;;17.78;29.68;102382.50;5046483;28;20091;-79
2022/04/17 11:29:48;;;;;;;3.95;1.58;;;;;;;17.62;29.14;102376.28;5046283;28;20055;-79
2022/04/17 11:32:16;;;;;;;2.05;1.73;;;;;;;17.76;29.31;102376.59;5025024;28;20040;-79
2022/04/17 11:34:55;;;;;;;3.28;1.58;;;;;;;18.03;29.54;102359.72;5042914;28;20055;-77
2022/04/17 11:37:20;;;;;;;4.10;1.35;;;;;;;18.02;29.32;102361.50;5046386;28;20045;-79
2022/04/17 11:39:46;;;;;;;1.65;0.90;;;;;;;17.83;29.61;102356.59;5032190;28;20127;-79
2022/04/17 11:42:12;;;;;;;3.42;1.40;;;;;;;17.76;28.98;102351.19;5042958;28;20028;-79
2022/04/17 11:44:46;;;;;;;3.90;1.30;;;;;;;17.93;29.07;102346.75;5060630;28;20381;-79